Time;durP1;ratioP1;P1;durP2;ratioP2;P2;SDS_P1;SDS_P2;PMS_P1;PMS_P2;Temp;Humidity;BMP_temperature;BMP_pressure;BME280_temperature;BME280_humidity;BME280_pressure;Samples;Min_cycle;Max_cycle;Signal;HPM_P1;HPM_P2
2021/05/24 00:00:00;;;;;;;2.80;0.95;;;14.00;99.90;;;;;;5050126;28;20024;-67
2021/05/24 00:02:26;;;;;;;2.75;0.50;;;14.00;99.90;;;;;;5057721;28;20028;-67
2021/05/24 00:04:52;;;;;;;1.80;0.55;;;14.00;99.90;;;;;;5049597;28;20039;-67
2021/05/24 00:07:17;;;;;;;2.28;0.70;;;13.90;99.90;;;;;;5050206;28;20021;-67
2021/05/24 00:09:43;;;;;;;2.00;0.60;;;13.90;99.90;;;;;;5049747;28;20428;-67
2021/05/24 00:12:09;;;;;;;3.28;0.60;;;13.90;99.90;;;;;;5052375;28;20013;-68
2021/05/24 00:14:38;;;;;;;1.98;0.52;;;13.90;99.90;;;;;;5052076;28;20401;-67
2021/05/24 00:17:04;;;;;;;2.88;0.70;;;13.90;99.90;;;;;;5054200;28;20021;-67
2021/05/24 00:19:30;;;;;;;1.60;0.50;;;13.90;99.90;;;;;;5053146;28;20036;-67
2021/05/24 00:21:55;;;;;;;1.48;0.50;;;13.90;99.90;;;;;;5053187;28;20025;-67
2021/05/24 00:24:21;;;;;;;2.60;0.60;;;13.90;99.90;;;;;;5053472;28;20035;-67
2021/05/24 00:26:47;;;;;;;3.67;0.60;;;13.90;99.90;;;;;;5054120;28;20061;-67
2021/05/24 00:29:18;;;;;;;3.35;0.73;;;13.90;99.90;;;;;;5053317;28;20485;-67
2021/05/24 00:31:44;;;;;;;4.05;0.70;;;13.90;99.90;;;;;;5053095;28;20075;-66
2021/05/24 00:34:11;;;;;;;1.80;0.50;;;13.90;99.90;;;;;;5051651;28;20025;-66
2021/05/24 00:36:36;;;;;;;3.38;0.75;;;13.80;99.90;;;;;;5051652;28;20057;-67
2021/05/24 00:39:07;;;;;;;2.55;0.82;;;13.90;99.90;;;;;;5055044;28;20063;-67
2021/05/24 00:41:34;;;;;;;4.28;0.60;;;13.80;99.90;;;;;;5063384;28;20392;-67
2021/05/24 00:44:00;;;;;;;3.42;0.80;;;13.80;99.90;;;;;;5053234;28;20481;-67
2021/05/24 00:46:25;;;;;;;1.48;0.50;;;13.80;99.90;;;;;;5052865;28;20025;-67
2021/05/24 00:48:51;;;;;;;1.13;0.40;;;13.80;99.90;;;;;;5051959;28;20057;-67
2021/05/24 00:51:16;;;;;;;2.90;0.90;;;13.80;99.90;;;;;;5056977;28;20021;-67
2021/05/24 00:53:43;;;;;;;4.22;0.50;;;13.80;99.90;;;;;;5056003;28;20029;-66
2021/05/24 00:56:09;;;;;;;2.80;0.57;;;13.80;99.90;;;;;;5053071;28;20094;-67
2021/05/24 00:58:34;;;;;;;1.13;0.60;;;13.80;99.90;;;;;;5053343;28;20482;-67
2021/05/24 01:01:01;;;;;;;1.48;0.70;;;13.80;99.90;;;;;;5051197;28;20060;-67
2021/05/24 01:03:26;;;;;;;2.00;0.70;;;13.90;99.90;;;;;;5052961;28;20028;-67
2021/05/24 01:05:52;;;;;;;3.92;0.50;;;13.80;99.90;;;;;;5052601;28;20033;-66
2021/05/24 01:08:17;;;;;;;1.20;0.50;;;13.80;99.90;;;;;;5052847;28;20040;-67
2021/05/24 01:10:44;;;;;;;2.92;0.82;;;13.80;99.90;;;;;;5052417;28;20021;-67
2021/05/24 01:13:11;;;;;;;1.70;0.50;;;13.80;99.90;;;;;;5051083;28;20021;-68
2021/05/24 01:15:38;;;;;;;2.83;0.60;;;13.80;99.90;;;;;;5051051;28;20121;-67
2021/05/24 01:18:05;;;;;;;3.22;0.65;;;13.80;99.90;;;;;;5052319;28;20028;-67
2021/05/24 01:20:31;;;;;;;2.78;0.77;;;13.70;99.90;;;;;;5052123;28;20032;-67
2021/05/24 01:23:07;;;;;;;2.33;0.80;;;13.70;99.90;;;;;;5059489;28;20369;-67
2021/05/24 01:25:39;;;;;;;4.15;0.80;;;13.70;99.90;;;;;;5052474;28;20052;-67
2021/05/24 01:28:06;;;;;;;4.25;0.90;;;13.60;99.90;;;;;;5052365;28;20052;-67
2021/05/24 01:30:32;;;;;;;1.35;0.70;;;13.60;99.90;;;;;;5052234;28;20104;-67
2021/05/24 01:32:58;;;;;;;2.90;0.77;;;13.60;99.90;;;;;;5051197;28;20160;-67
2021/05/24 01:35:24;;;;;;;4.55;1.10;;;13.60;99.90;;;;;;5050727;28;20032;-67
2021/05/24 01:37:49;;;;;;;4.38;1.13;;;13.50;99.90;;;;;;5051092;28;20025;-67
2021/05/24 01:40:16;;;;;;;2.28;0.70;;;13.40;99.90;;;;;;5052239;28;20029;-67
2021/05/24 01:42:42;;;;;;;1.45;0.80;;;13.40;99.90;;;;;;5052105;28;20024;-67
2021/05/24 01:45:08;;;;;;;3.08;0.90;;;13.30;99.90;;;;;;5050428;28;20075;-69
2021/05/24 01:47:34;;;;;;;2.05;0.77;;;13.10;99.90;;;;;;5052030;28;20074;-68
2021/05/24 01:49:59;;;;;;;5.70;1.25;;;12.90;99.90;;;;;;5052304;28;20065;-68
2021/05/24 01:52:25;;;;;;;1.27;0.40;;;12.80;99.90;;;;;;5051784;28;20390;-68
2021/05/24 01:54:51;;;;;;;3.90;0.68;;;12.70;99.90;;;;;;5050659;28;20090;-67
2021/05/24 01:57:16;;;;;;;2.65;1.00;;;12.50;99.90;;;;;;5050580;28;20385;-68
2021/05/24 01:59:42;;;;;;;2.17;0.60;;;12.40;99.90;;;;;;5051551;28;20104;-68
2021/05/24 02:02:08;;;;;;;3.17;0.88;;;12.20;99.90;;;;;;5051677;28;20064;-66
2021/05/24 02:04:37;;;;;;;3.10;0.73;;;12.00;99.90;;;;;;5051079;28;20033;-66
2021/05/24 02:07:03;;;;;;;2.58;0.55;;;11.80;99.90;;;;;;5050292;28;20070;-65
2021/05/24 02:09:29;;;;;;;2.42;0.90;;;11.80;99.90;;;;;;5051909;28;20021;-61
2021/05/24 02:11:55;;;;;;;3.22;0.90;;;11.70;99.90;;;;;;5051541;28;20559;-61
2021/05/24 02:14:21;;;;;;;1.70;0.60;;;11.60;99.90;;;;;;5051480;28;20044;-60
2021/05/24 02:16:52;;;;;;;0.77;0.60;;;11.60;99.90;;;;;;5051489;28;20025;-61
2021/05/24 02:19:19;;;;;;;1.42;0.57;;;11.60;99.90;;;;;;5051635;28;20482;-61
2021/05/24 02:21:44;;;;;;;3.55;0.70;;;11.60;99.90;;;;;;5051304;28;20029;-63
2021/05/24 02:24:11;;;;;;;1.63;1.10;;;11.40;99.90;;;;;;5062168;28;20028;-63
2021/05/24 02:26:39;;;;;;;2.47;0.82;;;11.40;99.90;;;;;;5054922;28;20029;-64
2021/05/24 02:29:05;;;;;;;2.47;1.10;;;11.40;99.90;;;;;;5051085;28;20474;-63
2021/05/24 02:31:32;;;;;;;1.52;0.70;;;11.30;99.90;;;;;;5055120;28;20083;-63
2021/05/24 02:33:57;;;;;;;3.13;0.93;;;11.30;99.90;;;;;;5060677;28;20079;-64
2021/05/24 02:36:24;;;;;;;3.28;0.80;;;11.20;99.90;;;;;;5049642;28;20033;-63
2021/05/24 02:38:50;;;;;;;3.15;0.90;;;11.30;99.90;;;;;;5051032;28;20033;-63
2021/05/24 02:41:16;;;;;;;3.72;1.00;;;11.20;99.90;;;;;;5049858;28;20025;-63
2021/05/24 02:43:42;;;;;;;2.92;0.90;;;11.20;99.90;;;;;;5051309;28;20037;-63
2021/05/24 02:46:08;;;;;;;3.58;0.70;;;11.10;99.90;;;;;;5050990;28;20032;-64
2021/05/24 02:48:34;;;;;;;2.45;0.73;;;11.10;99.90;;;;;;5050935;28;20020;-64
2021/05/24 02:51:00;;;;;;;2.72;0.70;;;11.10;99.90;;;;;;5050714;28;20056;-65
2021/05/24 02:53:26;;;;;;;2.80;0.80;;;11.00;99.90;;;;;;5050134;28;20052;-65
2021/05/24 02:55:51;;;;;;;1.70;0.82;;;10.90;99.90;;;;;;5050718;28;20037;-64
2021/05/24 02:58:18;;;;;;;5.35;0.90;;;10.80;99.90;;;;;;5049690;28;20049;-62
2021/05/24 03:00:43;;;;;;;2.05;0.65;;;10.90;99.90;;;;;;5049488;28;20260;-62
2021/05/24 03:03:11;;;;;;;1.58;0.60;;;10.80;99.90;;;;;;5050709;28;20033;-62
2021/05/24 03:05:37;;;;;;;2.97;0.77;;;10.70;99.90;;;;;;5050226;28;20018;-61
2021/05/24 03:08:03;;;;;;;3.47;0.68;;;10.70;99.90;;;;;;5064437;28;20027;-62
2021/05/24 03:10:28;;;;;;;3.63;1.02;;;10.60;99.90;;;;;;5050986;28;20112;-62
2021/05/24 03:12:54;;;;;;;1.58;0.60;;;10.60;99.90;;;;;;5050781;28;20022;-62
2021/05/24 03:15:21;;;;;;;4.63;0.90;;;10.70;99.90;;;;;;5058095;28;20079;-62
2021/05/24 03:17:47;;;;;;;2.22;1.00;;;10.70;99.90;;;;;;5049668;28;20033;-62
2021/05/24 03:20:14;;;;;;;5.78;0.80;;;10.60;99.90;;;;;;5050627;28;20029;-62
2021/05/24 03:22:41;;;;;;;2.63;0.70;;;10.50;99.90;;;;;;5050728;28;20509;-63
2021/05/24 03:25:09;;;;;;;1.35;0.82;;;10.40;99.90;;;;;;5064848;28;20447;-61
2021/05/24 03:27:34;;;;;;;1.35;0.70;;;10.40;99.90;;;;;;5049142;28;20489;-62
2021/05/24 03:30:00;;;;;;;3.50;1.20;;;10.40;99.90;;;;;;5050307;28;20029;-62
2021/05/24 03:32:26;;;;;;;3.60;1.00;;;10.40;99.90;;;;;;5050896;28;20025;-62
2021/05/24 03:34:52;;;;;;;1.35;0.70;;;10.30;99.90;;;;;;5050451;28;20027;-61
2021/05/24 03:37:18;;;;;;;6.57;1.92;;;10.40;99.90;;;;;;5050378;28;20051;-62
2021/05/24 03:39:43;;;;;;;3.13;0.98;;;10.30;99.90;;;;;;5053448;28;20381;-62
2021/05/24 03:42:09;;;;;;;2.58;0.90;;;10.30;99.90;;;;;;5061474;28;20056;-62
2021/05/24 03:44:37;;;;;;;2.72;1.17;;;10.30;99.90;;;;;;5051690;28;20424;-62
2021/05/24 03:47:03;;;;;;;4.75;1.55;;;10.30;99.90;;;;;;5052835;28;20021;-61
2021/05/24 03:49:28;;;;;;;1.73;0.90;;;10.20;99.90;;;;;;5054167;28;20053;-61
2021/05/24 03:51:54;;;;;;;3.17;1.08;;;10.20;99.90;;;;;;5061564;28;20056;-61
2021/05/24 03:54:20;;;;;;;4.30;1.40;;;10.10;99.90;;;;;;5054444;28;20108;-61
2021/05/24 03:56:47;;;;;;;3.33;1.20;;;10.10;99.90;;;;;;5054257;28;20036;-61
2021/05/24 03:59:13;;;;;;;5.15;1.95;;;10.10;99.90;;;;;;5053988;28;20036;-61
2021/05/24 04:01:39;;;;;;;4.25;1.42;;;10.10;99.90;;;;;;5053020;28;20032;-61
2021/05/24 04:04:06;;;;;;;3.10;1.23;;;10.10;99.90;;;;;;5053761;28;20033;-61
2021/05/24 04:06:32;;;;;;;2.38;1.00;;;10.10;99.90;;;;;;5053786;28;20503;-61
2021/05/24 04:08:58;;;;;;;1.40;0.80;;;10.20;99.90;;;;;;5054118;28;20461;-61
2021/05/24 04:11:24;;;;;;;2.78;1.15;;;10.30;99.90;;;;;;5069577;28;20024;-60
2021/05/24 04:13:52;;;;;;;4.07;1.40;;;10.20;99.90;;;;;;5062239;28;20025;-61
2021/05/24 04:16:18;;;;;;;1.92;0.90;;;10.20;99.90;;;;;;5053873;28;21094;-61
2021/05/24 04:18:48;;;;;;;2.33;1.13;;;10.20;99.90;;;;;;5053507;28;20493;-61
2021/05/24 04:21:15;;;;;;;2.97;1.00;;;10.10;99.90;;;;;;5053725;28;20381;-60
2021/05/24 04:23:41;;;;;;;3.45;0.90;;;10.10;99.90;;;;;;5053547;28;20513;-61
2021/05/24 04:26:08;;;;;;;4.60;1.10;;;10.20;99.90;;;;;;5053502;28;20031;-61
2021/05/24 04:28:34;;;;;;;2.40;1.30;;;10.10;99.90;;;;;;5053605;28;20050;-60
2021/05/24 04:31:00;;;;;;;5.63;1.33;;;10.10;99.90;;;;;;5053850;28;20036;-61
2021/05/24 04:33:26;;;;;;;3.10;1.20;;;10.00;99.90;;;;;;5053317;28;20025;-61
2021/05/24 04:35:52;;;;;;;3.00;1.20;;;10.00;99.90;;;;;;5053367;28;20029;-61
2021/05/24 04:38:17;;;;;;;2.20;1.10;;;10.00;99.90;;;;;;5052257;28;20037;-62
2021/05/24 04:40:43;;;;;;;2.40;1.33;;;9.90;99.90;;;;;;5051926;28;20222;-61
2021/05/24 04:43:09;;;;;;;4.00;1.33;;;9.90;99.90;;;;;;5053279;28;20023;-61
2021/05/24 04:45:35;;;;;;;3.58;1.48;;;9.80;99.90;;;;;;5059091;28;20055;-61
2021/05/24 04:48:00;;;;;;;6.05;1.88;;;9.80;99.90;;;;;;5070924;28;20052;-62
2021/05/24 04:50:26;;;;;;;4.05;1.80;;;9.80;99.90;;;;;;5057080;28;20036;-62
2021/05/24 04:52:52;;;;;;;3.03;1.60;;;9.90;99.90;;;;;;5051738;28;20029;-62
2021/05/24 04:55:19;;;;;;;2.78;1.30;;;9.80;99.90;;;;;;5052413;28;20037;-62
2021/05/24 04:57:45;;;;;;;1.45;1.13;;;9.80;99.90;;;;;;5059825;28;20389;-61
2021/05/24 05:00:13;;;;;;;4.63;1.45;;;9.80;99.90;;;;;;5060843;28;20033;-62
2021/05/24 05:02:39;;;;;;;5.68;1.50;;;9.80;99.90;;;;;;5052799;28;20045;-61
2021/05/24 05:05:06;;;;;;;4.43;1.63;;;9.80;99.90;;;;;;5052168;28;20078;-62
2021/05/24 05:07:32;;;;;;;6.30;1.55;;;9.80;99.90;;;;;;5052741;28;20037;-62
2021/05/24 05:09:58;;;;;;;2.38;1.25;;;9.80;99.90;;;;;;5051378;28;20036;-63
2021/05/24 05:12:25;;;;;;;2.28;1.27;;;9.80;99.90;;;;;;5052429;28;20480;-63
2021/05/24 05:14:51;;;;;;;7.15;1.83;;;9.80;99.90;;;;;;5051252;28;20021;-64
2021/05/24 05:17:17;;;;;;;5.15;1.30;;;9.80;99.90;;;;;;5059611;28;20466;-67
2021/05/24 05:19:42;;;;;;;2.15;1.40;;;9.80;99.90;;;;;;5052435;28;20028;-65
2021/05/24 05:22:08;;;;;;;3.20;1.05;;;9.80;99.90;;;;;;5052471;28;20025;-64
2021/05/24 05:24:34;;;;;;;4.60;1.75;;;9.80;99.90;;;;;;5058555;28;20462;-64
2021/05/24 05:26:59;;;;;;;3.83;1.50;;;9.80;99.90;;;;;;5051087;28;20067;-63
2021/05/24 05:29:25;;;;;;;4.63;1.48;;;9.80;99.90;;;;;;5055903;28;20028;-64
2021/05/24 05:31:51;;;;;;;2.65;1.45;;;9.80;99.90;;;;;;5056440;28;20096;-64
2021/05/24 05:34:17;;;;;;;2.88;1.60;;;9.80;99.90;;;;;;5052020;28;20194;-64
2021/05/24 05:36:42;;;;;;;4.53;1.70;;;9.70;99.90;;;;;;5052643;28;20032;-64
2021/05/24 05:39:08;;;;;;;5.07;1.63;;;9.80;99.90;;;;;;5052889;28;20107;-64
2021/05/24 05:41:35;;;;;;;6.32;2.00;;;9.80;99.90;;;;;;5058993;28;20033;-65
2021/05/24 05:44:02;;;;;;;3.35;2.10;;;9.80;99.90;;;;;;5051896;28;20020;-64
2021/05/24 05:46:27;;;;;;;3.28;1.92;;;9.80;99.90;;;;;;5068003;28;20033;-64
2021/05/24 05:48:53;;;;;;;3.25;1.45;;;9.80;99.90;;;;;;5052859;28;20359;-64
2021/05/24 05:51:19;;;;;;;2.58;1.75;;;9.80;99.90;;;;;;5050633;28;20486;-64
2021/05/24 05:53:44;;;;;;;4.15;1.90;;;9.80;99.90;;;;;;5052199;28;20029;-64
2021/05/24 05:56:10;;;;;;;2.60;1.30;;;9.80;99.90;;;;;;5052183;28;20036;-64
2021/05/24 05:58:35;;;;;;;6.65;1.75;;;9.80;99.90;;;;;;5051914;28;20048;-64
2021/05/24 06:01:04;;;;;;;7.18;2.05;;;9.80;99.90;;;;;;5050552;28;20073;-64
2021/05/24 06:03:30;;;;;;;3.22;1.50;;;9.70;99.90;;;;;;5059327;28;20037;-64
2021/05/24 06:05:56;;;;;;;3.53;1.60;;;9.80;99.90;;;;;;5050150;28;20032;-64
2021/05/24 06:08:22;;;;;;;5.57;1.75;;;9.80;99.90;;;;;;5051699;28;20029;-64
2021/05/24 06:10:47;;;;;;;5.03;1.83;;;9.80;99.90;;;;;;5051297;28;20045;-64
2021/05/24 06:13:13;;;;;;;6.88;2.25;;;9.70;99.90;;;;;;5058373;28;20032;-65
2021/05/24 06:15:38;;;;;;;4.97;1.95;;;9.80;99.90;;;;;;5060207;28;20055;-66
2021/05/24 06:18:04;;;;;;;4.32;1.70;;;9.80;99.90;;;;;;5049995;28;20090;-64
2021/05/24 06:20:31;;;;;;;6.53;2.72;;;9.70;99.90;;;;;;5058711;28;20095;-64
2021/05/24 06:22:56;;;;;;;3.53;1.90;;;9.80;99.90;;;;;;5057980;28;20059;-64
2021/05/24 06:25:22;;;;;;;4.70;2.13;;;9.70;99.90;;;;;;5049715;28;20485;-65
2021/05/24 06:27:48;;;;;;;3.08;2.20;;;9.80;99.90;;;;;;5061334;28;20124;-64
2021/05/24 06:30:14;;;;;;;6.18;1.77;;;9.80;99.90;;;;;;5067907;28;20025;-64
2021/05/24 06:32:40;;;;;;;3.42;1.90;;;9.80;99.90;;;;;;5068285;28;20527;-65
2021/05/24 06:35:06;;;;;;;3.78;2.15;;;9.80;99.90;;;;;;5056718;28;20028;-65
2021/05/24 06:37:32;;;;;;;2.50;1.88;;;9.80;99.90;;;;;;5049793;28;20385;-65
2021/05/24 06:39:58;;;;;;;4.43;2.00;;;9.90;99.90;;;;;;5058549;28;20059;-65
2021/05/24 06:42:24;;;;;;;3.10;1.60;;;9.90;99.90;;;;;;5050934;28;20071;-65
2021/05/24 06:44:51;;;;;;;5.22;1.70;;;9.80;99.90;;;;;;5051092;28;20021;-64
2021/05/24 06:47:16;;;;;;;5.07;1.55;;;9.80;99.90;;;;;;5050191;28;20037;-64
2021/05/24 06:49:42;;;;;;;2.60;1.70;;;9.80;99.90;;;;;;5051011;28;20036;-65
2021/05/24 06:52:07;;;;;;;2.58;1.60;;;9.80;99.90;;;;;;5050854;28;20053;-64
2021/05/24 06:54:36;;;;;;;3.97;1.83;;;9.90;99.90;;;;;;5050634;28;20083;-63
2021/05/24 06:57:04;;;;;;;3.50;1.60;;;9.90;99.90;;;;;;5050525;28;20082;-65
2021/05/24 06:59:30;;;;;;;4.18;1.70;;;9.90;99.90;;;;;;5050995;28;20029;-65
2021/05/24 07:01:57;;;;;;;5.25;1.75;;;9.90;99.90;;;;;;5051116;28;20036;-65
2021/05/24 07:04:23;;;;;;;5.43;2.08;;;10.00;99.90;;;;;;5051026;28;20029;-65
2021/05/24 07:06:48;;;;;;;4.45;2.10;;;10.00;99.90;;;;;;5050936;28;20036;-65
2021/05/24 07:09:14;;;;;;;3.35;2.00;;;10.00;99.90;;;;;;5050529;28;20025;-65
2021/05/24 07:11:39;;;;;;;4.13;1.90;;;10.00;99.90;;;;;;5050348;28;20024;-66
2021/05/24 07:14:06;;;;;;;5.13;2.25;;;10.10;99.90;;;;;;5050912;28;20033;-65
2021/05/24 07:16:31;;;;;;;6.28;2.25;;;10.10;99.90;;;;;;5049234;28;20025;-64
2021/05/24 07:18:57;;;;;;;4.88;2.13;;;10.10;99.90;;;;;;5050340;28;20579;-64
2021/05/24 07:21:23;;;;;;;6.63;2.90;;;10.10;99.90;;;;;;5054487;28;20025;-65
2021/05/24 07:23:48;;;;;;;4.35;3.15;;;10.20;99.90;;;;;;5054494;28;20031;-64
2021/05/24 07:26:14;;;;;;;7.97;3.75;;;10.10;99.90;;;;;;5053066;28;20025;-65
2021/05/24 07:28:39;;;;;;;8.90;4.80;;;10.20;99.90;;;;;;5054266;28;20547;-65
2021/05/24 07:31:05;;;;;;;9.35;5.25;;;10.20;99.90;;;;;;5054439;28;20082;-65
2021/05/24 07:33:31;;;;;;;9.48;5.55;;;10.30;99.90;;;;;;5053187;28;20025;-65
2021/05/24 07:35:57;;;;;;;9.02;5.05;;;10.30;99.90;;;;;;5053088;28;20021;-65
2021/05/24 07:38:22;;;;;;;8.55;4.55;;;10.30;99.90;;;;;;5054189;28;20028;-65
2021/05/24 07:40:48;;;;;;;10.80;5.68;;;10.20;99.90;;;;;;5053436;28;20033;-64
2021/05/24 07:43:13;;;;;;;10.93;6.45;;;10.20;99.90;;;;;;5060310;28;20103;-65
2021/05/24 07:45:39;;;;;;;16.80;7.43;;;10.20;99.90;;;;;;5062339;28;20045;-66
2021/05/24 07:48:05;;;;;;;12.82;6.53;;;10.20;99.90;;;;;;5052956;28;20389;-66
2021/05/24 07:50:31;;;;;;;16.17;8.23;;;10.20;99.90;;;;;;5053767;28;20514;-65
2021/05/24 07:52:56;;;;;;;16.17;7.88;;;10.30;99.90;;;;;;5053851;28;20043;-64
2021/05/24 07:55:22;;;;;;;16.02;7.53;;;10.40;99.90;;;;;;5054090;28;20568;-64
2021/05/24 07:57:48;;;;;;;15.18;8.30;;;10.40;99.90;;;;;;5053977;28;20053;-64
2021/05/24 08:00:16;;;;;;;15.05;8.98;;;10.40;99.90;;;;;;5052517;28;20131;-65
2021/05/24 08:02:44;;;;;;;14.80;8.20;;;10.50;99.90;;;;;;5052509;28;20496;-65
2021/05/24 08:05:12;;;;;;;16.13;7.72;;;10.50;99.90;;;;;;5059244;28;20024;-65
2021/05/24 08:07:41;;;;;;;11.68;6.85;;;10.50;99.90;;;;;;5061791;28;20037;-64
2021/05/24 08:10:09;;;;;;;10.77;6.63;;;10.60;99.90;;;;;;5053714;28;20025;-65
2021/05/24 08:12:37;;;;;;;9.30;5.72;;;10.60;99.90;;;;;;5053158;28;20032;-66
2021/05/24 08:15:09;;;;;;;10.82;6.22;;;10.60;99.90;;;;;;5060215;28;20028;-65
2021/05/24 08:17:34;;;;;;;10.50;5.95;;;10.60;99.90;;;;;;5052372;28;20516;-65
2021/05/24 08:20:05;;;;;;;11.13;5.50;;;10.70;99.90;;;;;;5053655;28;20017;-65
2021/05/24 08:22:30;;;;;;;8.73;4.72;;;10.80;99.90;;;;;;5053469;28;20033;-66
2021/05/24 08:24:56;;;;;;;9.98;5.32;;;10.80;99.90;;;;;;5053675;28;20100;-66
2021/05/24 08:27:22;;;;;;;7.00;4.90;;;10.80;99.90;;;;;;5053802;28;20048;-66
2021/05/24 08:29:47;;;;;;;8.20;3.80;;;11.00;99.90;;;;;;5051741;28;20043;-65
2021/05/24 08:32:13;;;;;;;10.27;3.83;;;10.90;99.90;;;;;;5051978;28;20033;-65
2021/05/24 08:34:39;;;;;;;6.00;3.90;;;11.00;99.90;;;;;;5051651;28;20021;-64
2021/05/24 08:37:04;;;;;;;5.18;4.00;;;11.10;99.90;;;;;;5053308;28;20020;-64
2021/05/24 08:39:30;;;;;;;6.05;4.03;;;11.10;99.90;;;;;;5053177;28;20616;-64
2021/05/24 08:41:58;;;;;;;6.13;3.55;;;11.20;99.90;;;;;;5052998;28;20061;-63
2021/05/24 08:44:25;;;;;;;4.70;3.40;;;11.20;99.90;;;;;;5051130;28;20033;-63
2021/05/24 08:46:51;;;;;;;4.13;3.53;;;11.30;99.90;;;;;;5051705;28;20152;-64
2021/05/24 08:49:17;;;;;;;7.40;2.60;;;11.30;99.90;;;;;;5058940;28;20025;-64
2021/05/24 08:51:43;;;;;;;4.97;3.25;;;11.30;99.90;;;;;;5052986;28;20029;-65
2021/05/24 08:54:08;;;;;;;3.00;2.30;;;11.40;99.90;;;;;;5072495;28;20029;-65
2021/05/24 08:56:34;;;;;;;5.72;2.80;;;11.40;99.90;;;;;;5070203;28;20056;-65
2021/05/24 08:59:02;;;;;;;3.13;2.40;;;11.40;99.90;;;;;;5052431;28;20090;-64
2021/05/24 09:01:28;;;;;;;3.78;2.60;;;11.50;99.90;;;;;;5051286;28;20506;-64
2021/05/24 09:03:59;;;;;;;2.83;2.10;;;11.60;99.90;;;;;;5053639;28;20109;-64
2021/05/24 09:06:38;;;;;;;2.42;1.30;;;11.60;99.90;;;;;;5056617;28;20028;-63
2021/05/24 09:09:08;;;;;;;1.40;1.15;;;11.50;99.90;;;;;;5060486;28;20531;-63
2021/05/24 09:11:34;;;;;;;2.22;1.10;;;11.50;99.90;;;;;;5052341;28;20053;-62
2021/05/24 09:14:03;;;;;;;2.40;1.30;;;11.40;99.90;;;;;;5067007;28;20055;-63
2021/05/24 09:16:34;;;;;;;2.90;1.00;;;11.40;99.90;;;;;;5051306;28;20115;-63
2021/05/24 09:19:17;;;;;;;2.55;1.25;;;11.30;99.90;;;;;;5051460;28;20037;-65
2021/05/24 09:21:59;;;;;;;1.45;1.02;;;11.40;99.90;;;;;;5052643;28;20028;-65
2021/05/24 09:24:33;;;;;;;1.27;1.00;;;11.60;99.90;;;;;;5058878;28;20454;-66
2021/05/24 09:27:01;;;;;;;2.25;1.05;;;11.70;99.90;;;;;;5052180;28;20291;-66
2021/05/24 09:29:39;;;;;;;1.10;0.80;;;11.80;99.90;;;;;;5052310;28;20021;-67
2021/05/24 09:32:15;;;;;;;2.63;1.25;;;12.00;99.90;;;;;;5050580;28;20032;-66
2021/05/24 09:34:42;;;;;;;2.63;1.00;;;12.00;99.90;;;;;;5051884;28;20036;-65
2021/05/24 09:37:08;;;;;;;1.52;1.08;;;12.00;99.90;;;;;;5052086;28;20037;-65
2021/05/24 09:39:35;;;;;;;2.13;1.00;;;12.10;99.90;;;;;;5052015;28;20035;-64
2021/05/24 09:42:15;;;;;;;1.35;1.10;;;12.10;99.90;;;;;;5051289;28;20438;-63
2021/05/24 09:44:53;;;;;;;1.48;1.20;;;12.10;99.90;;;;;;5052358;28;20033;-63
2021/05/24 09:47:33;;;;;;;2.35;1.10;;;12.00;99.90;;;;;;5059558;28;20033;-63
2021/05/24 09:50:12;;;;;;;3.17;1.10;;;12.00;99.90;;;;;;5052051;28;20024;-63
2021/05/24 09:52:40;;;;;;;2.15;1.00;;;12.10;99.90;;;;;;5051361;28;20082;-63
2021/05/24 09:55:16;;;;;;;4.10;1.25;;;12.30;99.90;;;;;;5051831;28;20028;-62
2021/05/24 09:58:02;;;;;;;4.78;1.10;;;12.40;99.90;;;;;;5051960;28;20021;-62
2021/05/24 10:00:48;;;;;;;1.65;1.02;;;12.30;99.90;;;;;;5051846;28;20284;-62
2021/05/24 10:03:15;;;;;;;1.30;1.20;;;12.30;99.90;;;;;;5052025;28;20499;-62
2021/05/24 10:05:51;;;;;;;2.97;0.90;;;12.30;99.90;;;;;;5050816;28;20662;-62
2021/05/24 10:08:16;;;;;;;1.40;1.00;;;12.30;99.90;;;;;;5051699;28;20107;-62
2021/05/24 10:10:43;;;;;;;1.55;1.23;;;12.20;99.90;;;;;;5051220;28;20116;-62
2021/05/24 10:13:10;;;;;;;1.17;0.88;;;12.30;99.90;;;;;;5051118;28;20029;-62
2021/05/24 10:15:39;;;;;;;1.38;0.90;;;12.50;99.90;;;;;;5049795;28;20025;-62
2021/05/24 10:18:06;;;;;;;1.50;1.05;;;12.50;99.90;;;;;;5052853;28;20039;-63
2021/05/24 10:20:33;;;;;;;1.13;0.80;;;12.60;99.90;;;;;;5051160;28;20033;-63
2021/05/24 10:22:59;;;;;;;2.63;1.05;;;12.70;99.90;;;;;;5050592;28;20083;-63
2021/05/24 10:25:25;;;;;;;1.67;0.90;;;12.70;99.90;;;;;;5057356;28;20032;-63
2021/05/24 10:27:52;;;;;;;2.28;1.10;;;12.60;99.90;;;;;;5051863;28;20045;-63
2021/05/24 10:30:19;;;;;;;2.03;1.27;;;12.60;99.90;;;;;;5050846;28;20025;-63
2021/05/24 10:33:00;;;;;;;5.03;1.00;;;12.50;99.90;;;;;;5057682;28;20107;-63
2021/05/24 10:35:38;;;;;;;2.05;1.27;;;12.20;99.90;;;;;;5054790;28;20020;-63
2021/05/24 10:38:22;;;;;;;4.78;1.10;;;12.20;99.90;;;;;;5061890;28;20024;-63
2021/05/24 10:40:49;;;;;;;1.27;1.00;;;12.10;99.90;;;;;;5051663;28;20104;-62
2021/05/24 10:43:18;;;;;;;4.80;0.90;;;12.00;99.90;;;;;;5050756;28;20025;-62
2021/05/24 10:45:45;;;;;;;4.90;1.20;;;11.90;99.90;;;;;;5050825;28;20047;-62
2021/05/24 10:48:18;;;;;;;4.60;1.45;;;12.00;99.90;;;;;;5058548;28;20021;-62
2021/05/24 10:51:07;;;;;;;2.38;1.30;;;12.40;99.90;;;;;;5049449;28;20401;-64
2021/05/24 10:53:42;;;;;;;1.85;1.10;;;12.90;99.90;;;;;;5049193;28;20036;-63
2021/05/24 10:56:17;;;;;;;2.13;1.02;;;13.50;99.90;;;;;;5050744;28;20474;-63
2021/05/24 10:58:43;;;;;;;2.85;1.30;;;13.40;99.90;;;;;;5050572;28;20029;-63
2021/05/24 11:01:08;;;;;;;4.45;1.25;;;13.40;99.90;;;;;;5049100;28;20079;-63
2021/05/24 11:03:34;;;;;;;3.83;1.08;;;13.20;99.90;;;;;;5050962;28;20513;-63
2021/05/24 11:06:10;;;;;;;1.63;0.95;;;13.70;99.90;;;;;;5050135;28;20021;-63
2021/05/24 11:08:38;;;;;;;1.77;1.30;;;14.60;99.90;;;;;;5055268;28;20074;-63
2021/05/24 11:11:24;;;;;;;2.30;1.10;;;14.60;99.90;;;;;;5056648;28;20104;-63
2021/05/24 11:13:55;;;;;;;2.42;0.60;;;14.60;99.90;;;;;;5050609;28;20100;-63
2021/05/24 11:16:20;;;;;;;3.28;0.93;;;15.00;99.90;;;;;;5050377;28;20580;-63
2021/05/24 11:18:46;;;;;;;3.55;0.98;;;15.10;99.90;;;;;;5050157;28;20029;-63
2021/05/24 11:21:19;;;;;;;2.15;1.10;;;15.70;99.90;;;;;;5050982;28;20033;-63
2021/05/24 11:26:26;;;;;;;3.15;0.90;;;16.40;99.90;;;;;;5050285;28;19917;-64
2021/05/24 11:29:14;;;;;;;2.70;1.10;;;16.30;99.90;;;;;;5050233;28;20048;-63
2021/05/24 11:31:40;;;;;;;1.85;0.70;;;16.40;99.90;;;;;;5049180;28;20341;-63
2021/05/24 11:34:12;;;;;;;1.33;1.00;;;16.20;99.90;;;;;;5050242;28;20032;-63
2021/05/24 11:36:39;;;;;;;3.17;1.20;;;15.70;99.90;;;;;;5050531;28;20087;-63
2021/05/24 11:39:16;;;;;;;2.75;1.00;;;15.70;99.90;;;;;;5050012;28;20432;-63
2021/05/24 11:41:48;;;;;;;3.42;1.00;;;14.90;99.90;;;;;;5050100;28;20057;-64
2021/05/24 11:44:13;;;;;;;2.50;1.05;;;13.50;99.90;;;;;;5069031;28;20090;-63
2021/05/24 11:46:51;;;;;;;1.98;1.20;;;12.80;99.90;;;;;;5069251;28;20025;-62
2021/05/24 11:49:19;;;;;;;2.45;0.90;;;12.60;99.90;;;;;;5057795;28;20025;-63
2021/05/24 11:51:46;;;;;;;1.63;1.00;;;13.70;99.90;;;;;;5058090;28;20041;-65
2021/05/24 11:54:20;;;;;;;1.90;0.98;;;14.60;99.90;;;;;;5048562;28;20021;-65
2021/05/24 11:56:47;;;;;;;2.85;1.10;;;15.30;99.90;;;;;;5050035;28;20017;-64
2021/05/24 11:59:15;;;;;;;1.83;1.10;;;15.70;99.90;;;;;;5050287;28;20041;-63
2021/05/24 12:01:43;;;;;;;2.90;1.10;;;15.60;99.90;;;;;;5049800;28;20033;-62
2021/05/24 12:04:14;;;;;;;1.42;1.02;;;16.10;99.90;;;;;;5049552;28;20070;-65
2021/05/24 12:06:43;;;;;;;1.35;1.10;;;16.60;99.90;;;;;;5051843;28;20447;-66
2021/05/24 12:09:12;;;;;;;2.15;1.10;;;16.40;99.90;;;;;;5053636;28;20048;-65
2021/05/24 12:11:54;;;;;;;3.40;1.05;;;16.20;99.90;;;;;;5061429;28;20393;-64
2021/05/24 12:14:20;;;;;;;3.78;1.33;;;15.70;99.90;;;;;;5052424;28;20029;-64
2021/05/24 12:16:46;;;;;;;1.40;0.90;;;15.40;99.90;;;;;;5058618;28;20040;-64
2021/05/24 12:19:12;;;;;;;1.70;0.80;;;15.90;99.90;;;;;;5053413;28;20552;-63
2021/05/24 12:21:43;;;;;;;3.13;1.27;;;16.10;99.90;;;;;;5056556;28;20062;-63
2021/05/24 12:24:10;;;;;;;1.30;0.70;;;16.50;99.90;;;;;;5072795;28;20036;-63
2021/05/24 12:26:46;;;;;;;1.83;0.70;;;17.00;99.90;;;;;;5061002;28;20116;-64
2021/05/24 12:29:12;;;;;;;2.78;0.90;;;17.00;99.90;;;;;;5053846;28;20401;-64
2021/05/24 12:31:45;;;;;;;2.90;0.80;;;17.10;99.90;;;;;;5053751;28;20048;-63
2021/05/24 12:34:12;;;;;;;1.30;0.60;;;16.70;99.90;;;;;;5053780;28;20028;-63
2021/05/24 12:36:57;;;;;;;9.00;1.15;;;17.10;99.90;;;;;;5054880;28;20119;-63
2021/05/24 12:39:28;;;;;;;1.63;0.70;;;17.50;99.90;;;;;;5070232;28;20082;-63
2021/05/24 12:41:57;;;;;;;1.60;0.80;;;17.00;99.90;;;;;;5053353;28;20029;-64
2021/05/24 12:44:24;;;;;;;1.23;0.70;;;17.00;99.90;;;;;;5053308;28;20040;-64
2021/05/24 12:46:52;;;;;;;1.85;0.75;;;17.10;99.90;;;;;;5053433;28;20246;-65
2021/05/24 12:49:21;;;;;;;1.52;0.82;;;17.00;99.90;;;;;;5053539;28;20032;-63
2021/05/24 12:51:58;;;;;;;2.33;1.00;;;17.20;99.90;;;;;;5052946;28;20037;-63